Latest Weather Observations for Milingimbi

IDD60801

Issued at 11:35 am CST Tuesday 29 July 2014 (issued every 30 minutes, with the page automatically refreshed every 10 minutes)

About weather observations | Map of weather stations | Latest weather observations for NT | Other Formats
Station Details ID: 014404 Name: MILINGIMBI AIRPORT Lat: -12.09 Lon: 134.89 Height: 15.0 m
Data from the previous 72 hours. | See also: Recent months at Milingimbi
Date/Time
CST
Temp
°C
App
Temp
°C
Dew
Point
Rel
Hum
%
Delta-T
°C
Wind Press
QNH
hPa
Press
MSL
hPa
Rain
since 9 am
mm
Dir
 
Spd
km/h
Gust
km/h
Spd
kts
Gust
kts
29/11:30am 27.7 27.6 20.0 63 5.0 ESE 20 32 11 17 1016.2 - 0.0
29/11:00am 27.0 27.3 19.6 64 4.8 E 17 28 9 15 1016.7 - 0.0
29/10:30am 26.5 26.5 18.9 63 4.9 ESE 17 28 9 15 1016.9 - 0.0
29/10:00am 26.4 26.0 19.3 65 4.6 ESE 20 30 11 16 1017.2 - 0.0
29/09:30am 25.6 25.8 19.3 68 4.0 ESE 17 24 9 13 1017.2 - 0.0
29/09:00am 24.7 24.5 19.3 72 3.5 SE 19 28 10 15 1017.1 1017.0 0.0
29/08:30am 23.4 23.9 19.3 78 2.6 SE 15 20 8 11 1017.1 - 0.0
29/08:00am 22.0 23.3 19.2 84 1.8 SE 11 17 6 9 1016.9 - 0.0
29/07:30am 20.8 22.4 19.1 90 1.1 SSE 9 11 5 6 1016.5 - 0.0
29/07:00am 20.3 21.8 19.0 92 0.8 SSE 9 11 5 6 1016.2 - 0.0
29/06:30am 20.3 21.5 19.0 92 0.8 SSE 11 15 6 8 1016.1 - 0.0
29/06:00am 20.2 21.7 18.9 92 0.8 SE 9 15 5 8 1015.7 1015.6 0.0
29/05:30am 20.2 21.7 18.9 92 0.8 SE 9 11 5 6 1015.4 - 0.0
29/05:00am 20.3 21.0 18.8 91 0.9 SE 13 17 7 9 1015.2 - 0.0
29/04:30am 20.5 21.6 18.8 90 1.1 SSE 11 15 6 8 1015.0 - 0.0
29/04:00am 20.8 21.4 18.7 88 1.3 SSE 13 19 7 10 1014.8 - 0.0
29/03:30am 21.0 21.3 18.8 87 1.4 SE 15 20 8 11 1014.9 - 0.0
29/03:00am 21.2 21.9 18.8 86 1.5 SSE 13 19 7 10 1015.0 1014.9 0.0
29/02:30am 21.3 21.9 18.7 85 1.6 SE 13 17 7 9 1015.2 - 0.0
29/02:00am 21.4 22.0 18.6 84 1.8 SE 13 17 7 9 1015.5 - 0.0
29/01:30am 21.7 22.3 18.5 82 2.0 SE 13 17 7 9 1015.7 - 0.0
29/01:00am 22.1 22.0 18.7 81 2.1 SE 17 20 9 11 1015.8 - 0.0
29/12:30am 22.6 22.1 18.6 78 2.5 SE 19 22 10 12 1015.9 - 0.0
29/12:00am 23.0 23.1 18.3 75 2.9 SE 15 22 8 12 1016.2 1016.1 0.0
 
Date/Time
CST
Temp
°C
App
Temp
°C
Dew
Point
Rel
Hum
%
Delta-T
°C
Wind Press
QNH
hPa
Press
MSL
hPa
Rain
since 9 am
mm
Dir
 
Spd
km/h
Gust
km/h
Spd
kts
Gust
kts
28/11:30pm 23.3 23.0 18.2 73 3.2 SE 17 24 9 13 1016.1 - 0.0
28/11:00pm 24.1 23.4 18.3 70 3.7 SE 19 26 10 14 1016.0 - 0.0
28/10:30pm 24.5 24.3 18.4 69 3.9 SE 17 30 9 16 1016.0 - 0.0
28/10:00pm 24.6 25.2 18.5 69 3.9 SE 13 19 7 10 1016.1 - 0.0
28/09:30pm 24.7 25.0 17.9 66 4.3 SE 13 19 7 10 1015.9 - 0.0
28/09:00pm 25.1 24.9 17.6 63 4.7 SE 15 22 8 12 1015.8 1015.7 0.0
28/08:30pm 25.9 25.3 17.5 59 5.3 SE 17 22 9 12 1015.7 - 0.0
28/08:00pm 26.3 25.7 17.6 58 5.5 SE 17 22 9 12 1015.4 - 0.0
28/07:30pm 26.5 26.0 17.8 58 5.5 SE 17 24 9 13 1015.0 - 0.0
28/07:00pm 26.7 26.2 17.7 57 5.7 SE 17 22 9 12 1014.5 - 0.0
28/06:30pm 26.9 25.7 17.4 56 6.0 ESE 20 28 11 15 1014.0 - 0.0
28/06:00pm 27.2 27.1 19.5 62 5.0 ESE 19 26 10 14 1013.5 1013.4 0.0
28/05:30pm 27.3 29.1 20.4 66 4.5 E 11 17 6 9 1013.1 - 0.0
28/05:00pm 28.0 30.2 20.3 63 5.1 ENE 9 17 5 9 1012.8 - 0.0
28/04:30pm 27.7 28.7 20.3 64 4.9 ENE 15 20 8 11 1012.5 - 0.0
28/04:00pm 28.4 29.6 20.7 63 5.1 ENE 15 26 8 14 1012.4 - 0.0
28/03:30pm 29.3 29.3 18.1 51 7.2 E 15 33 8 18 1012.5 - 0.0
28/03:00pm 29.8 29.9 19.2 53 6.9 ESE 17 26 9 14 1012.8 1012.7 0.0
28/02:30pm 29.7 30.6 20.0 56 6.4 ESE 15 22 8 12 1013.2 - 0.0
28/02:00pm 29.4 30.0 19.4 55 6.5 E 15 26 8 14 1013.6 - 0.0
28/01:30pm 29.0 29.8 19.9 58 6.0 ENE 15 20 8 11 1014.1 - 0.0
28/01:00pm 29.1 30.1 19.4 55 6.3 E 13 20 7 11 1014.5 - 0.0
28/12:30pm 28.8 29.2 18.9 55 6.4 ESE 15 22 8 12 1015.1 - 0.0
28/12:00pm 28.5 28.6 18.3 54 6.5 E 15 24 8 13 1015.6 1015.5 0.0
28/11:30am 28.8 28.2 18.9 55 6.4 ESE 20 28 11 15 1016.1 - 0.0
28/11:00am 26.8 26.6 18.6 60 5.2 ESE 17 24 9 13 1016.5 - 0.0
28/10:30am 27.2 26.8 19.0 61 5.3 ESE 19 28 10 15 1016.7 - 0.0
28/10:00am 27.1 26.5 18.9 61 5.3 ESE 20 28 11 15 1016.9 - 0.0
28/09:30am 25.6 24.8 18.5 65 4.5 ESE 20 32 11 17 1016.9 - 0.0
28/09:00am 24.5 23.6 18.2 68 4.0 SE 20 28 11 15 1016.8 1016.7 0.0
28/08:30am 23.4 23.7 18.7 75 3.0 SE 15 22 8 12 1016.4 - 0.0
28/08:00am 21.9 22.6 18.9 83 1.9 SE 13 20 7 11 1016.3 - 0.0
28/07:30am 20.8 21.5 18.9 89 1.2 SSE 13 17 7 9 1016.0 - 0.0
28/07:00am 20.3 21.8 19.0 92 0.8 SSE 9 13 5 7 1015.8 - 0.0
28/06:30am 20.4 22.0 19.1 92 0.8 SSE 9 11 5 6 1015.7 - 0.0
28/06:00am 20.5 22.1 19.2 92 0.8 SSE 9 13 5 7 1015.2 1015.1 0.0
28/05:30am 20.4 22.0 19.2 93 0.8 SSE 9 13 5 7 1015.0 - 0.0
28/05:00am 20.6 22.3 19.4 93 0.8 SSE 9 11 5 6 1014.8 - 0.0
28/04:30am 20.7 22.8 19.4 92 0.8 SSE 7 11 4 6 1014.8 - 0.0
28/04:00am 20.9 22.6 19.4 91 1.0 SSE 9 13 5 7 1014.7 - 0.0
28/03:30am 21.2 22.6 19.5 90 1.1 SSE 11 13 6 7 1014.8 - 0.0
28/03:00am 21.5 22.8 19.2 87 1.5 SSE 11 15 6 8 1015.0 1014.9 0.0
28/02:30am 22.1 22.7 19.5 85 1.7 SE 15 22 8 12 1015.2 - 0.0
28/02:00am 22.5 22.8 19.7 84 1.8 SE 17 26 9 14 1015.6 - 0.0
28/01:30am 22.6 22.9 19.6 83 1.9 SE 17 22 9 12 1016.0 - 0.0
28/01:00am 22.6 23.6 19.4 82 2.0 SE 13 17 7 9 1016.1 - 0.0
28/12:30am 23.3 23.9 19.5 79 2.4 SE 15 22 8 12 1016.2 - 0.0
28/12:00am 23.7 23.7 19.8 79 2.5 SE 19 26 10 14 1016.3 1016.2 0.0
 
Date/Time
CST
Temp
°C
App
Temp
°C
Dew
Point
Rel
Hum
%
Delta-T
°C
Wind Press
QNH
hPa
Press
MSL
hPa
Rain
since 9 am
mm
Dir
 
Spd
km/h
Gust
km/h
Spd
kts
Gust
kts
27/11:30pm 23.6 23.7 19.1 76 2.9 SE 17 24 9 13 1016.5 - 0.0
27/11:00pm 23.8 24.2 18.9 74 3.1 SE 15 24 8 13 1016.4 - 0.0
27/10:30pm 24.2 24.5 18.8 72 3.4 SE 15 20 8 11 1016.4 - 0.0
27/10:00pm 24.7 24.3 18.9 70 3.7 SE 19 26 10 14 1016.3 - 0.0
27/09:30pm 24.9 25.4 18.3 66 4.2 SE 13 17 7 9 1016.1 - 0.0
27/09:00pm 25.4 25.8 18.1 64 4.6 SE 13 19 7 10 1015.8 1015.7 0.0
27/08:30pm 26.1 25.8 18.2 61 5.0 SE 17 24 9 13 1015.5 - 0.0
27/08:00pm 26.4 26.8 19.0 63 4.7 SE 15 20 8 11 1015.1 - 0.0
27/07:30pm 25.7 28.4 20.7 74 3.3 ESE 7 11 4 6 1014.8 - 0.0
27/07:00pm 25.7 30.2 21.6 78 2.7 CALM 0 0 0 0 1014.5 - 0.0
27/06:30pm 26.3 29.9 21.3 74 3.3 N 4 7 2 4 1014.1 - 0.0
27/06:00pm 27.0 30.2 21.3 71 3.8 NNE 6 9 3 5 1013.6 1013.5 0.0
27/05:30pm 28.0 31.1 21.1 66 4.6 N 6 9 3 5 1013.4 - 0.0
27/05:00pm 28.8 30.3 18.9 55 6.4 NE 9 13 5 7 1013.3 - 0.0
27/04:30pm 28.4 30.1 19.3 57 5.9 ENE 9 17 5 9 1013.2 - 0.0
27/04:00pm 29.8 31.5 20.1 56 6.4 ENE 11 20 6 11 1013.1 - 0.0
27/03:30pm 29.9 30.8 19.3 53 6.9 ENE 13 20 7 11 1013.0 - 0.0
27/03:00pm 28.1 29.7 19.1 58 5.8 ENE 9 15 5 8 1013.4 1013.3 0.0
27/02:30pm 29.1 29.1 18.2 51 7.0 ENE 15 26 8 14 1013.7 - 0.0
27/02:00pm 30.6 30.9 18.7 49 7.7 ESE 15 24 8 13 1013.9 - 0.0
27/01:30pm 29.9 29.2 17.4 47 7.9 E 17 28 9 15 1014.5 - 0.0
27/01:00pm 29.6 29.6 18.1 50 7.4 E 15 22 8 12 1015.2 - 0.0
27/12:30pm 30.3 30.7 19.0 50 7.3 ESE 15 24 8 13 1015.7 - 0.0
27/12:00pm 28.5 29.2 18.9 56 6.2 ESE 13 19 7 10 1016.3 1016.2 0.0
27/11:30am 28.0 28.9 19.2 58 5.7 ESE 13 20 7 11 1016.8 - 0.0
27/11:00am 27.0 28.0 19.4 63 4.9 ESE 13 20 7 11 1017.2 - 0.0
27/10:30am 26.6 26.6 18.2 60 5.3 ESE 15 24 8 13 1017.3 - 0.0
27/10:00am 26.1 26.3 18.5 63 4.8 ESE 15 26 8 14 1017.4 - 0.0
27/09:30am 25.5 26.4 19.2 68 4.0 SE 13 17 7 9 1017.5 - 0.0
27/09:00am 23.9 24.6 18.8 73 3.2 ESE 13 19 7 10 1017.6 1017.5 0.0
27/08:30am 22.8 23.5 18.8 78 2.5 SE 13 19 7 10 1017.3 - 0.0
27/08:00am 21.7 22.8 18.9 84 1.8 SSE 11 17 6 9 1017.0 - 0.0
27/07:30am 20.9 22.5 19.2 90 1.1 SSE 9 15 5 8 1016.7 - 0.0
27/07:00am 20.4 22.0 19.1 92 0.8 SSE 9 13 5 7 1016.4 - 0.0
27/06:30am 20.5 22.1 19.2 92 0.8 SSE 9 13 5 7 1016.2 - 0.0
27/06:00am 20.6 22.3 19.4 93 0.8 SSE 9 13 5 7 1016.1 1016.0 0.0
27/05:30am 20.7 22.5 19.5 93 0.8 SSE 9 11 5 6 1015.9 - 0.0
27/05:00am 20.8 22.6 19.6 93 0.8 SE 9 13 5 7 1015.7 - 0.0
27/04:30am 20.7 22.8 19.4 92 0.8 SE 7 9 4 5 1015.6 - 0.0
27/04:00am 20.9 23.1 19.6 92 0.8 SSE 7 9 4 5 1015.6 - 0.0
27/03:30am 21.1 22.9 19.6 91 1.0 SSE 9 11 5 6 1015.6 - 0.0
27/03:00am 21.4 22.9 19.7 90 1.1 SE 11 15 6 8 1015.8 1015.7 0.0
27/02:30am 21.6 23.1 19.7 89 1.2 SSE 11 17 6 9 1016.1 - 0.0
27/02:00am 21.8 22.9 19.7 88 1.3 SSE 13 19 7 10 1016.6 - 0.0
27/01:30am 22.0 23.0 19.5 86 1.6 SSE 13 19 7 10 1016.7 - 0.0
27/01:00am 22.2 23.3 19.6 85 1.7 SSE 13 19 7 10 1017.0 - 0.0
27/12:30am 22.4 23.1 19.6 84 1.8 SE 15 20 8 11 1017.2 - 0.0
27/12:00am 22.6 23.3 19.6 83 1.9 SE 15 20 8 11 1017.5 1017.4 0.0
 
Date/Time
CST
Temp
°C
App
Temp
°C
Dew
Point
Rel
Hum
%
Delta-T
°C
Wind Press
QNH
hPa
Press
MSL
hPa
Rain
since 9 am
mm
Dir
 
Spd
km/h
Gust
km/h
Spd
kts
Gust
kts
26/11:30pm 22.9 23.9 19.5 81 2.2 SSE 13 19 7 10 1017.6 - 0.0
26/11:00pm 23.3 23.8 19.2 78 2.6 SE 15 22 8 12 1017.7 - 0.0
26/10:30pm 23.6 23.7 19.1 76 2.9 SE 17 20 9 11 1017.8 - 0.0
26/10:00pm 23.9 24.2 18.8 73 3.2 SE 15 19 8 10 1017.8 - 0.0
26/09:30pm 24.9 25.1 19.3 71 3.6 ESE 17 26 9 14 1017.8 - 0.0
26/09:00pm 25.2 25.9 19.6 71 3.6 SE 15 20 8 11 1017.6 1017.5 0.0
26/08:30pm 25.6 26.6 20.2 72 3.5 ESE 15 20 8 11 1017.3 - 0.0
26/08:00pm 25.8 27.4 20.8 74 3.3 E 13 19 7 10 1017.0 - 0.0
26/07:30pm 25.9 27.9 20.7 73 3.4 E 11 17 6 9 1016.5 - 0.0
26/07:00pm 26.0 28.0 20.8 73 3.4 E 11 20 6 11 1016.3 - 0.0
26/06:30pm 25.9 27.4 20.5 72 3.5 ENE 13 24 7 13 1015.9 - 0.0
26/06:00pm 25.9 27.8 20.5 72 3.5 E 11 19 6 10 1015.8 1015.7 0.0
26/05:30pm 26.4 29.0 21.2 73 3.4 ENE 9 17 5 9 1015.6 - 0.0
26/05:00pm 27.6 29.3 20.9 67 4.4 ENE 13 22 7 12 1015.2 - 0.0
26/04:30pm 28.1 29.6 20.6 63 4.9 ENE 13 20 7 11 1014.9 - 0.0
26/04:00pm 27.9 28.7 19.9 61 5.2 ENE 15 24 8 13 1014.7 - 0.0
26/03:30pm 28.8 29.2 19.1 55 6.3 ENE 15 26 8 14 1014.3 - 0.0
26/03:00pm 29.7 30.9 19.1 53 6.9 E 11 19 6 10 1014.2 1014.1 0.0
26/02:30pm 30.4 31.6 19.1 50 7.4 ESE 11 17 6 9 1014.4 - 0.0
26/02:00pm 29.7 30.0 18.8 52 7.0 ESE 15 20 8 11 1014.7 - 0.0
26/01:30pm 29.1 29.8 18.8 53 6.6 ESE 13 20 7 11 1015.3 - 0.0
26/01:00pm 29.1 30.0 20.0 58 6.0 ESE 15 22 8 12 1015.7 - 0.0
26/12:30pm 28.0 28.4 19.8 61 5.3 ESE 17 28 9 15 1016.2 - 0.0
26/12:00pm 27.1 27.3 19.4 62 5.0 ESE 17 28 9 15 1016.7 1016.6 0.0

Other Formats:

Comma delimited format used in spreadsheet applications
http://www.bom.gov.au/fwo/IDD60801/IDD60801.94140.axf

JavaScript Object Notation format (JSON) in row-major order
http://www.bom.gov.au/fwo/IDD60801/IDD60801.94140.json